Time;durP1;ratioP1;P1;durP2;ratioP2;P2;SDS_P1;SDS_P2;PMS_P1;PMS_P2;Temp;Humidity;BMP_temperature;BMP_pressure;BME280_temperature;BME280_humidity;BME280_pressure;Samples;Min_cycle;Max_cycle;Signal;HPM_P1;HPM_P2
2021/08/08 00:00:39;;;;;;;4.50;4.10;;;;;;;;;;2097702;28;20255;-52
2021/08/08 00:01:39;;;;;;;3.92;3.60;;;;;;;;;;2097088;28;20634;-48
2021/08/08 00:02:40;;;;;;;4.28;3.72;;;;;;;;;;2093925;28;20548;-52
2021/08/08 00:03:41;;;;;;;7.07;4.00;;;;;;;;;;2098035;28;20197;-47
2021/08/08 00:04:41;;;;;;;4.18;3.83;;;;;;;;;;2091584;28;20534;-56
2021/08/08 00:05:41;;;;;;;5.35;3.83;;;;;;;;;;2097171;28;20174;-53
2021/08/08 00:06:42;;;;;;;4.75;4.30;;;;;;;;;;2109314;22;20319;-61
2021/08/08 00:07:42;;;;;;;4.40;4.05;;;;;;;;;;2105092;28;20174;-63
2021/08/08 00:08:42;;;;;;;4.80;3.92;;;;;;;;;;2096884;28;20210;-62
2021/08/08 00:09:43;;;;;;;3.70;3.40;;;;;;;;;;2096851;28;20206;-62
2021/08/08 00:10:43;;;;;;;4.47;3.50;;;;;;;;;;2105671;28;20201;-63
2021/08/08 00:11:43;;;;;;;4.78;3.40;;;;;;;;;;2093542;28;20288;-61
2021/08/08 00:12:44;;;;;;;4.13;3.45;;;;;;;;;;2096224;28;20232;-61
2021/08/08 00:13:44;;;;;;;3.53;3.28;;;;;;;;;;2099669;28;20170;-59
2021/08/08 00:14:45;;;;;;;4.25;3.70;;;;;;;;;;2105582;28;20166;-60
2021/08/08 00:15:45;;;;;;;4.80;3.40;;;;;;;;;;2104464;28;20241;-62
2021/08/08 00:16:45;;;;;;;3.60;3.30;;;;;;;;;;2097824;28;20214;-60
2021/08/08 00:17:45;;;;;;;3.97;3.40;;;;;;;;;;2089064;28;20212;-60
2021/08/08 00:18:46;;;;;;;3.30;3.10;;;;;;;;;;2088565;28;20679;-59
2021/08/08 00:19:46;;;;;;;3.95;3.28;;;;;;;;;;2102315;28;20163;-62
2021/08/08 00:20:47;;;;;;;3.65;3.10;;;;;;;;;;2097458;28;20198;-61
2021/08/08 00:21:48;;;;;;;3.35;3.10;;;;;;;;;;2088800;28;20659;-62
2021/08/08 00:22:48;;;;;;;3.88;3.58;;;;;;;;;;2088046;28;20262;-62
2021/08/08 00:23:49;;;;;;;4.25;3.85;;;;;;;;;;2097101;28;20194;-64
2021/08/08 00:24:49;;;;;;;3.35;3.05;;;;;;;;;;2089709;28;20171;-59
2021/08/08 00:25:50;;;;;;;5.95;3.35;;;;;;;;;;2097515;28;20185;-64
2021/08/08 00:26:51;;;;;;;3.50;3.20;;;;;;;;;;2105452;28;20194;-61
2021/08/08 00:27:51;;;;;;;3.67;3.35;;;;;;;;;;2090390;28;20640;-61
2021/08/08 00:28:52;;;;;;;4.05;3.42;;;;;;;;;;2097434;28;20253;-62
2021/08/08 00:29:52;;;;;;;5.30;3.28;;;;;;;;;;2101537;28;20228;-63
2021/08/08 00:30:52;;;;;;;3.92;3.10;;;;;;;;;;2107909;28;20162;-65
2021/08/08 00:31:53;;;;;;;4.30;3.53;;;;;;;;;;2102690;28;20542;-63
2021/08/08 00:32:54;;;;;;;3.53;3.22;;;;;;;;;;2098212;28;20714;-64
2021/08/08 00:34:05;;;;;;;3.42;3.10;;;;;;;;;;2099494;28;20652;-66
2021/08/08 00:35:06;;;;;;;5.07;3.40;;;;;;;;;;2087960;28;20210;-63
2021/08/08 00:36:07;;;;;;;3.55;2.95;;;;;;;;;;2089085;28;20668;-63
2021/08/08 00:37:07;;;;;;;4.18;2.92;;;;;;;;;;2093176;28;20236;-59
2021/08/08 00:38:09;;;;;;;5.97;3.08;;;;;;;;;;2094893;28;20170;-62
2021/08/08 00:39:09;;;;;;;4.38;2.92;;;;;;;;;;2095961;28;20163;-64
2021/08/08 00:40:12;;;;;;;4.25;3.85;;;;;;;;;;2097533;28;20171;-58
2021/08/08 00:41:13;;;;;;;4.30;3.00;;;;;;;;;;2088958;28;20180;-61
2021/08/08 00:42:13;;;;;;;3.42;3.05;;;;;;;;;;2097292;28;20171;-60
2021/08/08 00:43:14;;;;;;;3.83;3.50;;;;;;;;;;2096778;28;20215;-62
2021/08/08 00:44:17;;;;;;;3.47;3.10;;;;;;;;;;2092878;28;20163;-68
2021/08/08 00:45:19;;;;;;;3.28;2.83;;;;;;;;;;2089036;28;20694;-62
2021/08/08 00:46:22;;;;;;;4.20;3.08;;;;;;;;;;2095394;28;20228;-63
2021/08/08 00:47:23;;;;;;;3.38;3.08;;;;;;;;;;2094077;28;20212;-62
2021/08/08 00:48:23;;;;;;;3.83;3.05;;;;;;;;;;2088123;28;20566;-63
2021/08/08 00:49:25;;;;;;;4.90;2.92;;;;;;;;;;2076828;28;20182;-64
2021/08/08 00:50:26;;;;;;;3.22;2.92;;;;;;;;;;2087995;28;20250;-59
2021/08/08 00:51:28;;;;;;;3.22;2.97;;;;;;;;;;2085564;28;20221;-62
2021/08/08 00:52:29;;;;;;;3.33;3.08;;;;;;;;;;2097139;28;20179;-60
2021/08/08 00:53:30;;;;;;;3.13;2.92;;;;;;;;;;2089565;28;20344;-62
2021/08/08 00:54:33;;;;;;;3.20;2.90;;;;;;;;;;2085728;28;20180;-63
2021/08/08 00:55:34;;;;;;;3.25;3.03;;;;;;;;;;2090304;28;20176;-64
2021/08/08 00:56:35;;;;;;;6.80;3.42;;;;;;;;;;2089907;28;20191;-61
2021/08/08 00:57:36;;;;;;;3.33;3.03;;;;;;;;;;2090226;28;20179;-61
2021/08/08 00:58:37;;;;;;;3.17;2.97;;;;;;;;;;2085243;28;20175;-63
2021/08/08 00:59:38;;;;;;;5.53;3.00;;;;;;;;;;2090699;28;20652;-60
2021/08/08 01:00:40;;;;;;;4.00;3.30;;;;;;;;;;2083085;28;20176;-62
2021/08/08 01:01:45;;;;;;;4.63;3.17;;;;;;;;;;2090183;28;20199;-63
2021/08/08 01:02:53;;;;;;;3.03;2.80;;;;;;;;;;2099652;28;20167;-62
2021/08/08 01:03:57;;;;;;;5.68;3.55;;;;;;;;;;2093722;28;20230;-59
2021/08/08 01:05:07;;;;;;;4.15;3.58;;;;;;;;;;2089459;28;20179;-59
2021/08/08 01:06:15;;;;;;;5.57;3.50;;;;;;;;;;2090528;28;20186;-62
2021/08/08 01:07:18;;;;;;;4.95;3.28;;;;;;;;;;2090452;28;20267;-61
2021/08/08 01:08:21;;;;;;;4.70;3.17;;;;;;;;;;2090573;28;20176;-62
2021/08/08 01:09:24;;;;;;;3.03;2.72;;;;;;;;;;2085834;28;20172;-63
2021/08/08 01:10:25;;;;;;;4.45;3.20;;;;;;;;;;2090715;28;20171;-61
2021/08/08 01:11:26;;;;;;;3.28;3.08;;;;;;;;;;2090105;28;20550;-64
2021/08/08 01:12:27;;;;;;;3.40;3.20;;;;;;;;;;2090641;28;20172;-61
2021/08/08 01:13:29;;;;;;;3.20;3.00;;;;;;;;;;2090677;28;20702;-61
2021/08/08 01:14:31;;;;;;;3.65;3.05;;;;;;;;;;2085954;28;20255;-62
2021/08/08 01:15:32;;;;;;;4.90;2.85;;;;;;;;;;2087337;28;20180;-63
2021/08/08 01:16:33;;;;;;;3.83;3.20;;;;;;;;;;2089326;28;20611;-64
2021/08/08 01:17:34;;;;;;;3.67;3.28;;;;;;;;;;2097741;28;20686;-62
2021/08/08 01:18:35;;;;;;;3.30;2.90;;;;;;;;;;2096265;28;20175;-63
2021/08/08 01:19:38;;;;;;;3.33;3.03;;;;;;;;;;2097594;28;20258;-63
2021/08/08 01:20:39;;;;;;;3.30;3.10;;;;;;;;;;2106216;28;20170;-62
2021/08/08 01:21:41;;;;;;;4.70;2.97;;;;;;;;;;2082672;28;20180;-59
2021/08/08 01:22:49;;;;;;;4.45;3.13;;;;;;;;;;2090178;28;20170;-62
2021/08/08 01:24:00;;;;;;;3.85;3.20;;;;;;;;;;2083165;28;20234;-65
2021/08/08 01:25:02;;;;;;;4.03;3.20;;;;;;;;;;2092344;28;20199;-60
2021/08/08 01:26:04;;;;;;;3.75;2.67;;;;;;;;;;2090057;28;20570;-63
2021/08/08 01:27:05;;;;;;;3.35;3.05;;;;;;;;;;2090033;28;20227;-64
2021/08/08 01:28:06;;;;;;;3.53;2.88;;;;;;;;;;2089889;28;20834;-60
2021/08/08 01:29:10;;;;;;;3.63;3.25;;;;;;;;;;2085790;28;20217;-62
2021/08/08 01:30:10;;;;;;;3.00;2.80;;;;;;;;;;2089686;28;20222;-63
2021/08/08 01:31:12;;;;;;;5.13;3.00;;;;;;;;;;2096132;28;20171;-65
2021/08/08 01:32:13;;;;;;;4.28;2.70;;;;;;;;;;2089530;28;20163;-62
2021/08/08 01:33:13;;;;;;;5.35;2.92;;;;;;;;;;2094745;28;20760;-61
2021/08/08 01:34:30;;;;;;;5.25;2.65;;;;;;;;;;2097783;28;20177;-62
2021/08/08 01:35:34;;;;;;;3.80;2.80;;;;;;;;;;2097685;28;20166;-62
2021/08/08 01:36:34;;;;;;;3.88;2.88;;;;;;;;;;2078829;28;20279;-63
2021/08/08 01:37:35;;;;;;;3.35;3.05;;;;;;;;;;2079734;28;20294;-60
2021/08/08 01:38:39;;;;;;;3.00;2.78;;;;;;;;;;2089058;28;20163;-64
2021/08/08 01:39:42;;;;;;;3.05;2.78;;;;;;;;;;2083986;28;20184;-65
2021/08/08 01:40:58;;;;;;;5.00;3.05;;;;;;;;;;2089267;28;20683;-64
2021/08/08 01:42:03;;;;;;;5.10;3.20;;;;;;;;;;2093756;28;20167;-60
2021/08/08 01:43:09;;;;;;;3.08;2.88;;;;;;;;;;2095461;28;20170;-61
2021/08/08 01:44:11;;;;;;;3.28;3.08;;;;;;;;;;2088808;28;20259;-61
2021/08/08 01:45:17;;;;;;;3.55;2.90;;;;;;;;;;2073763;28;20567;-63
2021/08/08 01:46:18;;;;;;;3.20;2.72;;;;;;;;;;2081637;28;20639;-66
2021/08/08 01:47:47;;;;;;;2.88;2.67;;;;;;;;;;2099342;28;20258;-60
2021/08/08 01:48:54;;;;;;;3.80;3.47;;;;;;;;;;2082561;28;20192;-62
2021/08/08 01:49:55;;;;;;;5.18;3.35;;;;;;;;;;2076420;28;20184;-63
2021/08/08 01:50:59;;;;;;;4.90;3.30;;;;;;;;;;2092280;28;20718;-63
2021/08/08 01:52:00;;;;;;;3.55;3.25;;;;;;;;;;2089107;28;20175;-60
2021/08/08 01:53:04;;;;;;;4.20;3.15;;;;;;;;;;2089539;28;20219;-62
2021/08/08 01:54:06;;;;;;;3.60;3.30;;;;;;;;;;2089029;28;20542;-57
2021/08/08 01:55:09;;;;;;;4.88;3.30;;;;;;;;;;2098250;28;20181;-57
2021/08/08 01:56:20;;;;;;;3.72;3.47;;;;;;;;;;2087210;28;20175;-62
2021/08/08 01:57:24;;;;;;;3.92;3.47;;;;;;;;;;2089836;28;20172;-59
2021/08/08 01:58:30;;;;;;;4.22;3.30;;;;;;;;;;2081565;28;20543;-60
2021/08/08 01:59:37;;;;;;;4.70;3.63;;;;;;;;;;2083467;28;20207;-62
2021/08/08 02:00:37;;;;;;;4.22;3.33;;;;;;;;;;2097662;28;20170;-62
2021/08/08 02:01:47;;;;;;;3.40;3.10;;;;;;;;;;2088692;28;20183;-63
2021/08/08 02:02:54;;;;;;;3.90;3.15;;;;;;;;;;2089526;28;20675;-60
2021/08/08 02:03:59;;;;;;;4.43;3.60;;;;;;;;;;2090206;28;20203;-60
2021/08/08 02:05:00;;;;;;;5.10;3.70;;;;;;;;;;2088957;28;20232;-62
2021/08/08 02:06:01;;;;;;;4.03;3.63;;;;;;;;;;2089548;28;20168;-63
2021/08/08 02:07:01;;;;;;;3.90;3.15;;;;;;;;;;2091864;28;20700;-62
2021/08/08 02:08:03;;;;;;;3.42;3.13;;;;;;;;;;2088243;28;20171;-59
2021/08/08 02:09:12;;;;;;;3.70;3.42;;;;;;;;;;2092165;28;20167;-61
2021/08/08 02:10:12;;;;;;;3.88;3.38;;;;;;;;;;2092860;28;20799;-60
2021/08/08 02:11:13;;;;;;;6.93;3.65;;;;;;;;;;2084274;28;20164;-62
2021/08/08 02:12:25;;;;;;;3.75;3.45;;;;;;;;;;2088838;28;20180;-62
2021/08/08 02:13:26;;;;;;;4.65;4.10;;;;;;;;;;2094537;28;20543;-62
2021/08/08 02:14:27;;;;;;;5.45;3.80;;;;;;;;;;2097382;28;20194;-60
2021/08/08 02:15:30;;;;;;;4.80;4.13;;;;;;;;;;2097597;28;20549;-63
2021/08/08 02:16:35;;;;;;;4.90;4.40;;;;;;;;;;2089000;28;20195;-58
2021/08/08 02:17:38;;;;;;;4.05;3.85;;;;;;;;;;2088291;28;20221;-61
2021/08/08 02:18:39;;;;;;;4.93;4.47;;;;;;;;;;2089502;28;20176;-62
2021/08/08 02:19:41;;;;;;;5.55;3.97;;;;;;;;;;2089035;28;20179;-60
2021/08/08 02:20:42;;;;;;;5.00;4.10;;;;;;;;;;2097261;28;20229;-60
2021/08/08 02:21:45;;;;;;;4.25;3.85;;;;;;;;;;2096469;28;20183;-60
2021/08/08 02:22:46;;;;;;;4.90;4.50;;;;;;;;;;2081437;28;20571;-56
2021/08/08 02:23:47;;;;;;;7.75;4.80;;;;;;;;;;2089250;28;20186;-60
2021/08/08 02:24:47;;;;;;;5.25;4.75;;;;;;;;;;2088669;28;20219;-56
2021/08/08 02:25:54;;;;;;;5.45;5.05;;;;;;;;;;2076224;28;20180;-62
2021/08/08 02:27:00;;;;;;;5.30;4.85;;;;;;;;;;2089843;28;20202;-62
2021/08/08 02:28:01;;;;;;;7.05;5.50;;;;;;;;;;2097353;28;20170;-62
2021/08/08 02:29:07;;;;;;;5.03;4.70;;;;;;;;;;2094987;28;20607;-59
2021/08/08 02:30:09;;;;;;;6.05;5.15;;;;;;;;;;2084794;28;20168;-61
2021/08/08 02:31:10;;;;;;;5.45;4.95;;;;;;;;;;2094089;28;20175;-63
2021/08/08 02:32:14;;;;;;;6.10;5.50;;;;;;;;;;2105899;28;20161;-59
2021/08/08 02:33:16;;;;;;;6.63;5.55;;;;;;;;;;2095113;28;20670;-61
2021/08/08 02:34:17;;;;;;;6.53;5.65;;;;;;;;;;2097419;28;20167;-62
2021/08/08 02:35:19;;;;;;;5.45;5.15;;;;;;;;;;2097421;28;20213;-60
2021/08/08 02:36:21;;;;;;;7.05;6.40;;;;;;;;;;2089831;28;20664;-58
2021/08/08 02:37:23;;;;;;;6.47;5.75;;;;;;;;;;2089311;28;20641;-62
2021/08/08 02:38:26;;;;;;;8.77;6.25;;;;;;;;;;2094675;28;20696;-62
2021/08/08 02:39:32;;;;;;;6.80;6.00;;;;;;;;;;2092659;28;20284;-62
2021/08/08 02:40:32;;;;;;;7.43;6.22;;;;;;;;;;2088129;28;20188;-62
2021/08/08 02:41:33;;;;;;;6.28;5.78;;;;;;;;;;2087113;28;20173;-61
2021/08/08 02:42:34;;;;;;;7.25;6.53;;;;;;;;;;2088333;28;20164;-58
2021/08/08 02:43:35;;;;;;;6.47;5.93;;;;;;;;;;2097277;28;20167;-62
2021/08/08 02:44:36;;;;;;;7.78;6.00;;;;;;;;;;2084714;28;20653;-61
2021/08/08 02:45:36;;;;;;;9.10;5.63;;;;;;;;;;2095363;28;20659;-57
2021/08/08 02:46:40;;;;;;;6.38;5.88;;;;;;;;;;2092695;28;20221;-60
2021/08/08 02:47:40;;;;;;;7.20;6.55;;;;;;;;;;2088775;28;20179;-60
2021/08/08 02:48:41;;;;;;;7.10;6.32;;;;;;;;;;2094549;28;20229;-61
2021/08/08 02:49:45;;;;;;;7.03;6.20;;;;;;;;;;2092825;28;20202;-61
2021/08/08 02:50:45;;;;;;;7.80;6.72;;;;;;;;;;2096127;28;20179;-60
2021/08/08 02:51:46;;;;;;;7.30;6.60;;;;;;;;;;2097058;28;20163;-60
2021/08/08 02:52:46;;;;;;;7.43;6.72;;;;;;;;;;2092077;28;20524;-58
2021/08/08 02:53:48;;;;;;;7.95;7.22;;;;;;;;;;2096835;28;20297;-58
2021/08/08 02:54:49;;;;;;;9.55;7.65;;;;;;;;;;2096041;28;20170;-59
2021/08/08 02:55:49;;;;;;;9.20;8.30;;;;;;;;;;2088862;28;20168;-63
2021/08/08 02:56:49;;;;;;;9.40;8.05;;;;;;;;;;2083430;28;20204;-62
2021/08/08 02:57:51;;;;;;;8.73;7.95;;;;;;;;;;2089397;28;20167;-61
2021/08/08 02:58:51;;;;;;;9.23;8.30;;;;;;;;;;2089436;28;20167;-60
2021/08/08 02:59:52;;;;;;;9.82;8.85;;;;;;;;;;2092324;28;20214;-60
2021/08/08 03:00:52;;;;;;;9.27;8.40;;;;;;;;;;2080058;28;20279;-59
2021/08/08 03:01:52;;;;;;;9.35;8.40;;;;;;;;;;2079825;28;20175;-58
2021/08/08 03:02:53;;;;;;;9.55;8.68;;;;;;;;;;2082314;28;20271;-58
2021/08/08 03:03:53;;;;;;;9.50;8.50;;;;;;;;;;2088011;28;20294;-61
2021/08/08 03:04:53;;;;;;;11.45;8.70;;;;;;;;;;2088751;28;20179;-61
2021/08/08 03:05:53;;;;;;;9.70;8.80;;;;;;;;;;2096875;28;20874;-60
2021/08/08 03:06:54;;;;;;;10.25;8.88;;;;;;;;;;2090648;28;20242;-62
2021/08/08 03:07:55;;;;;;;10.25;7.97;;;;;;;;;;2088988;28;20174;-62
2021/08/08 03:08:57;;;;;;;8.65;7.82;;;;;;;;;;2089779;28;20242;-62
2021/08/08 03:09:58;;;;;;;9.13;8.38;;;;;;;;;;2097152;28;20788;-62
2021/08/08 03:11:00;;;;;;;9.88;8.90;;;;;;;;;;2097745;28;20179;-59
2021/08/08 03:12:00;;;;;;;9.05;8.32;;;;;;;;;;2096434;28;20183;-63
2021/08/08 03:13:01;;;;;;;9.98;9.00;;;;;;;;;;2088962;28;20687;-60
2021/08/08 03:14:02;;;;;;;9.57;8.75;;;;;;;;;;2092897;28;20163;-61
2021/08/08 03:15:03;;;;;;;10.45;8.65;;;;;;;;;;2089080;28;20176;-61
2021/08/08 03:16:04;;;;;;;9.30;8.55;;;;;;;;;;2093883;28;20175;-61
2021/08/08 03:17:04;;;;;;;9.88;8.88;;;;;;;;;;2095981;28;20198;-62
2021/08/08 03:18:06;;;;;;;9.80;8.93;;;;;;;;;;2083531;28;20175;-59
2021/08/08 03:19:07;;;;;;;10.20;9.23;;;;;;;;;;2084012;28;20644;-60
2021/08/08 03:20:09;;;;;;;9.20;8.27;;;;;;;;;;2086696;28;20258;-60
2021/08/08 03:21:09;;;;;;;10.60;9.52;;;;;;;;;;2088045;28;20187;-61
2021/08/08 03:22:10;;;;;;;9.50;8.60;;;;;;;;;;2098082;28;20167;-63
2021/08/08 03:23:13;;;;;;;10.45;9.38;;;;;;;;;;2086521;28;20338;-61
2021/08/08 03:24:13;;;;;;;10.20;9.20;;;;;;;;;;2085956;28;20208;-60
2021/08/08 03:25:14;;;;;;;10.70;9.60;;;;;;;;;;2093442;28;20857;-61
2021/08/08 03:26:15;;;;;;;10.48;9.40;;;;;;;;;;2092206;28;20214;-61
2021/08/08 03:27:16;;;;;;;11.00;9.57;;;;;;;;;;2089658;28;20168;-56
2021/08/08 03:28:20;;;;;;;10.23;9.30;;;;;;;;;;2089945;28;20174;-62
2021/08/08 03:29:21;;;;;;;10.23;9.32;;;;;;;;;;2094654;28;20172;-56
2021/08/08 03:30:23;;;;;;;12.43;9.63;;;;;;;;;;2105862;28;20651;-58
2021/08/08 03:31:23;;;;;;;10.88;9.80;;;;;;;;;;2099630;28;20266;-61
2021/08/08 03:32:24;;;;;;;10.52;9.23;;;;;;;;;;2100500;28;20272;-60
2021/08/08 03:33:25;;;;;;;11.48;10.38;;;;;;;;;;2095504;28;20256;-62
2021/08/08 03:34:26;;;;;;;10.13;9.25;;;;;;;;;;2095043;28;20716;-59
2021/08/08 03:35:26;;;;;;;10.57;9.63;;;;;;;;;;2100908;28;20224;-62
2021/08/08 03:36:27;;;;;;;11.55;10.13;;;;;;;;;;2099918;28;20167;-62
2021/08/08 03:37:27;;;;;;;11.63;9.95;;;;;;;;;;2099028;28;20171;-60
2021/08/08 03:38:28;;;;;;;12.50;10.45;;;;;;;;;;2095839;28;20175;-62
2021/08/08 03:39:29;;;;;;;10.50;9.48;;;;;;;;;;2090250;28;20191;-61
2021/08/08 03:40:29;;;;;;;11.45;10.32;;;;;;;;;;2089948;28;20210;-61
2021/08/08 03:41:30;;;;;;;12.00;10.75;;;;;;;;;;2086633;28;20176;-62
2021/08/08 03:42:30;;;;;;;11.07;10.00;;;;;;;;;;2088931;28;20190;-61
2021/08/08 03:43:32;;;;;;;10.77;9.68;;;;;;;;;;2090360;28;20171;-61
2021/08/08 03:44:32;;;;;;;12.82;10.02;;;;;;;;;;2088855;28;20175;-62
2021/08/08 03:45:33;;;;;;;13.38;11.30;;;;;;;;;;2091413;28;20163;-62
2021/08/08 03:46:34;;;;;;;12.60;9.73;;;;;;;;;;2098831;28;20182;-62
2021/08/08 03:47:36;;;;;;;11.50;10.20;;;;;;;;;;2094173;28;20677;-62
2021/08/08 03:48:39;;;;;;;16.30;10.13;;;;;;;;;;2099407;28;20173;-58
2021/08/08 03:49:42;;;;;;;11.10;9.88;;;;;;;;;;2092207;28;20178;-61
2021/08/08 03:50:44;;;;;;;10.98;9.88;;;;;;;;;;2091351;28;20225;-61
2021/08/08 03:51:44;;;;;;;11.80;9.98;;;;;;;;;;2096142;28;20190;-60
2021/08/08 03:52:44;;;;;;;12.32;11.05;;;;;;;;;;2100200;28;20260;-60
2021/08/08 03:53:45;;;;;;;10.90;9.80;;;;;;;;;;2099626;28;20670;-62
2021/08/08 03:54:45;;;;;;;11.35;10.27;;;;;;;;;;2090297;28;20225;-60
2021/08/08 03:55:46;;;;;;;12.10;9.80;;;;;;;;;;2089646;28;20170;-60
2021/08/08 03:56:46;;;;;;;12.32;8.93;;;;;;;;;;2089408;28;20195;-62
2021/08/08 03:57:47;;;;;;;13.02;10.32;;;;;;;;;;2081849;28;20172;-61
2021/08/08 03:58:53;;;;;;;12.93;10.82;;;;;;;;;;2085564;28;20641;-61
2021/08/08 03:59:53;;;;;;;10.75;9.63;;;;;;;;;;2097950;28;20202;-65
2021/08/08 04:00:54;;;;;;;11.93;10.68;;;;;;;;;;2088191;28;20734;-62
2021/08/08 04:01:54;;;;;;;10.98;9.90;;;;;;;;;;2082781;28;20222;-62
2021/08/08 04:02:54;;;;;;;10.68;9.48;;;;;;;;;;2083219;28;20164;-62
2021/08/08 04:03:56;;;;;;;10.77;9.30;;;;;;;;;;2083074;28;20184;-61
2021/08/08 04:04:57;;;;;;;11.88;10.68;;;;;;;;;;2082109;28;20259;-61
2021/08/08 04:05:57;;;;;;;12.90;10.13;;;;;;;;;;2081866;28;20188;-64
2021/08/08 04:06:58;;;;;;;10.88;9.75;;;;;;;;;;2095184;28;20256;-62
2021/08/08 04:07:59;;;;;;;12.25;10.30;;;;;;;;;;2098054;28;20214;-58
2021/08/08 04:09:01;;;;;;;14.43;9.88;;;;;;;;;;2096711;28;20175;-60
2021/08/08 04:10:01;;;;;;;14.77;10.60;;;;;;;;;;2081348;28;20279;-58
2021/08/08 04:11:02;;;;;;;11.07;9.73;;;;;;;;;;2080692;28;20236;-60
2021/08/08 04:12:07;;;;;;;12.05;9.93;;;;;;;;;;2081286;28;20176;-61
2021/08/08 04:13:07;;;;;;;14.02;10.20;;;;;;;;;;2073065;28;20205;-59
2021/08/08 04:14:07;;;;;;;12.07;10.98;;;;;;;;;;2074252;28;20169;-60
2021/08/08 04:15:08;;;;;;;11.48;10.48;;;;;;;;;;2097388;28;20203;-61
2021/08/08 04:16:09;;;;;;;14.38;10.77;;;;;;;;;;2081004;28;20183;-60
2021/08/08 04:17:09;;;;;;;14.43;10.90;;;;;;;;;;2080950;28;20186;-57
2021/08/08 04:18:12;;;;;;;13.93;11.27;;;;;;;;;;2097781;28;20179;-58
2021/08/08 04:19:12;;;;;;;12.40;9.68;;;;;;;;;;2095232;28;20590;-57
2021/08/08 04:20:13;;;;;;;11.77;10.55;;;;;;;;;;2081285;28;20176;-59
2021/08/08 04:21:13;;;;;;;16.38;10.52;;;;;;;;;;2093542;28;20190;-59
2021/08/08 04:22:15;;;;;;;11.70;10.00;;;;;;;;;;2093163;28;20164;-57
2021/08/08 04:23:17;;;;;;;11.57;10.38;;;;;;;;;;2081272;28;20259;-62
2021/08/08 04:24:19;;;;;;;11.35;10.27;;;;;;;;;;2080689;28;20215;-59
2021/08/08 04:25:20;;;;;;;13.43;10.27;;;;;;;;;;2080987;28;20184;-60
2021/08/08 04:26:21;;;;;;;11.70;10.00;;;;;;;;;;2088103;28;20206;-57
2021/08/08 04:27:23;;;;;;;14.25;9.95;;;;;;;;;;2084972;28;20175;-61
2021/08/08 04:28:23;;;;;;;14.40;10.02;;;;;;;;;;2087549;28;20257;-59
2021/08/08 04:29:23;;;;;;;13.75;9.35;;;;;;;;;;2090378;28;20571;-64
2021/08/08 04:30:24;;;;;;;11.48;9.10;;;;;;;;;;2092288;28;20167;-59
2021/08/08 04:31:24;;;;;;;10.93;8.90;;;;;;;;;;2082950;28;20663;-61
2021/08/08 04:32:25;;;;;;;13.05;10.35;;;;;;;;;;2084486;28;20290;-60
2021/08/08 04:33:26;;;;;;;12.50;9.25;;;;;;;;;;2085015;28;20219;-60
2021/08/08 04:34:29;;;;;;;12.48;9.82;;;;;;;;;;2097269;28;20167;-55
2021/08/08 04:35:31;;;;;;;10.73;9.02;;;;;;;;;;2090798;28;20179;-60
2021/08/08 04:36:31;;;;;;;11.18;8.73;;;;;;;;;;2092833;28;20174;-59
2021/08/08 04:37:32;;;;;;;9.98;8.40;;;;;;;;;;2090593;28;20175;-60
2021/08/08 04:38:33;;;;;;;11.68;8.80;;;;;;;;;;2096729;28;20253;-60
2021/08/08 04:39:33;;;;;;;11.95;8.82;;;;;;;;;;2086383;28;20172;-62
2021/08/08 04:40:34;;;;;;;13.50;9.65;;;;;;;;;;2079803;28;20649;-58
2021/08/08 04:41:34;;;;;;;10.65;9.55;;;;;;;;;;2088710;28;20171;-59
2021/08/08 04:42:35;;;;;;;16.70;9.00;;;;;;;;;;2096704;28;20220;-55
2021/08/08 04:43:35;;;;;;;14.13;10.13;;;;;;;;;;2104148;28;20331;-58
2021/08/08 04:44:36;;;;;;;16.05;9.38;;;;;;;;;;2095457;28;20592;-56
2021/08/08 04:45:36;;;;;;;14.32;9.60;;;;;;;;;;2096618;28;20225;-59
2021/08/08 04:46:37;;;;;;;20.95;9.98;;;;;;;;;;2093852;28;20679;-58
2021/08/08 04:47:37;;;;;;;15.77;10.48;;;;;;;;;;2088316;28;20250;-55
2021/08/08 04:48:37;;;;;;;12.48;9.82;;;;;;;;;;2087628;28;20541;-56
2021/08/08 04:49:38;;;;;;;16.55;10.50;;;;;;;;;;2091321;28;20163;-56
2021/08/08 04:50:38;;;;;;;17.27;10.77;;;;;;;;;;2087261;28;20590;-55
2021/08/08 04:51:39;;;;;;;14.55;10.63;;;;;;;;;;2087706;28;20266;-56
2021/08/08 04:52:39;;;;;;;16.02;10.63;;;;;;;;;;2096297;28;20204;-61
2021/08/08 04:53:40;;;;;;;14.15;10.25;;;;;;;;;;2087141;28;20589;-59
2021/08/08 04:54:40;;;;;;;22.80;11.10;;;;;;;;;;2092543;28;20178;-56
2021/08/08 04:55:41;;;;;;;13.05;10.00;;;;;;;;;;2095740;28;20228;-55
2021/08/08 04:56:43;;;;;;;11.48;9.50;;;;;;;;;;2080068;28;20188;-60
2021/08/08 04:57:44;;;;;;;18.65;10.18;;;;;;;;;;2080285;28;20276;-59
2021/08/08 04:58:49;;;;;;;17.50;10.77;;;;;;;;;;2081849;28;20299;-60
2021/08/08 04:59:50;;;;;;;12.57;9.82;;;;;;;;;;2088448;28;20176;-58
2021/08/08 05:00:50;;;;;;;16.48;9.77;;;;;;;;;;2096559;28;20175;-57
2021/08/08 05:01:51;;;;;;;15.30;11.35;;;;;;;;;;2096453;28;20174;-57
2021/08/08 05:02:51;;;;;;;17.83;10.23;;;;;;;;;;2096091;28;20197;-57
2021/08/08 05:03:52;;;;;;;12.07;10.07;;;;;;;;;;2089452;28;20175;-62
2021/08/08 05:04:52;;;;;;;12.75;9.98;;;;;;;;;;2081946;28;20176;-61
2021/08/08 05:05:52;;;;;;;15.02;10.27;;;;;;;;;;2089909;28;20233;-57
2021/08/08 05:06:53;;;;;;;13.68;9.25;;;;;;;;;;2088316;28;20720;-60
2021/08/08 05:07:53;;;;;;;14.75;10.02;;;;;;;;;;2088975;28;20199;-57
2021/08/08 05:08:53;;;;;;;10.25;8.57;;;;;;;;;;2088116;28;20271;-62
2021/08/08 05:09:54;;;;;;;12.95;9.88;;;;;;;;;;2087533;28;20238;-60
2021/08/08 05:10:54;;;;;;;13.45;9.23;;;;;;;;;;2089379;28;20683;-60
2021/08/08 05:11:55;;;;;;;11.93;8.52;;;;;;;;;;2096904;28;20253;-57
2021/08/08 05:12:55;;;;;;;10.80;8.45;;;;;;;;;;2091853;28;20192;-57
2021/08/08 05:13:55;;;;;;;14.30;8.63;;;;;;;;;;2088706;28;20667;-62
2021/08/08 05:14:56;;;;;;;14.80;8.90;;;;;;;;;;2089792;28;20266;-61
2021/08/08 05:15:57;;;;;;;15.80;9.52;;;;;;;;;;2097156;28;20549;-60
2021/08/08 05:16:58;;;;;;;12.60;8.75;;;;;;;;;;2095285;28;20223;-60
2021/08/08 05:17:58;;;;;;;12.15;8.75;;;;;;;;;;2097071;28;20240;-63
2021/08/08 05:18:59;;;;;;;14.68;8.55;;;;;;;;;;2088259;28;20700;-60
2021/08/08 05:20:00;;;;;;;12.43;8.35;;;;;;;;;;2080280;28;20255;-57
2021/08/08 05:21:00;;;;;;;10.82;8.55;;;;;;;;;;2087960;28;20691;-63
2021/08/08 05:22:00;;;;;;;13.23;8.60;;;;;;;;;;2087599;28;20191;-61
2021/08/08 05:23:03;;;;;;;10.63;7.97;;;;;;;;;;2084682;28;20623;-56
2021/08/08 05:24:03;;;;;;;9.80;7.53;;;;;;;;;;2096793;28;20214;-54
2021/08/08 05:25:04;;;;;;;13.40;7.63;;;;;;;;;;2096649;28;20228;-56
2021/08/08 05:26:04;;;;;;;13.55;8.02;;;;;;;;;;2096108;28;20263;-55
2021/08/08 05:27:05;;;;;;;11.23;7.60;;;;;;;;;;2096147;28;20210;-59
2021/08/08 05:28:05;;;;;;;12.48;7.75;;;;;;;;;;2087492;28;20675;-57
2021/08/08 05:29:05;;;;;;;13.88;8.52;;;;;;;;;;2091475;28;20205;-61
2021/08/08 05:30:07;;;;;;;11.07;7.63;;;;;;;;;;2090909;28;20270;-54
2021/08/08 05:31:08;;;;;;;11.32;7.22;;;;;;;;;;2092282;28;20176;-59
2021/08/08 05:32:09;;;;;;;13.45;8.13;;;;;;;;;;2096212;28;20550;-55
2021/08/08 05:33:11;;;;;;;13.60;7.78;;;;;;;;;;2097237;28;20269;-62
2021/08/08 05:34:11;;;;;;;11.05;6.80;;;;;;;;;;2076843;28;20248;-61
2021/08/08 05:35:12;;;;;;;10.85;6.38;;;;;;;;;;2067426;28;20173;-63
2021/08/08 05:36:13;;;;;;;11.45;7.25;;;;;;;;;;2079874;28;20211;-62
2021/08/08 05:37:13;;;;;;;8.88;6.97;;;;;;;;;;2092673;28;20269;-60
2021/08/08 05:38:13;;;;;;;7.45;6.75;;;;;;;;;;2088404;28;20257;-59
2021/08/08 05:39:14;;;;;;;11.05;6.82;;;;;;;;;;2089183;28;20210;-62
2021/08/08 05:40:14;;;;;;;9.18;6.47;;;;;;;;;;2090103;28;20184;-58
2021/08/08 05:41:21;;;;;;;9.25;6.43;;;;;;;;;;2090910;28;20171;-60
2021/08/08 05:42:22;;;;;;;11.07;6.53;;;;;;;;;;2095997;28;20179;-57
2021/08/08 05:43:22;;;;;;;15.00;6.80;;;;;;;;;;2095434;28;20647;-62
2021/08/08 05:44:22;;;;;;;8.45;6.25;;;;;;;;;;2087770;28;20175;-61
2021/08/08 05:45:23;;;;;;;10.95;6.22;;;;;;;;;;2098713;28;20252;-59
2021/08/08 05:46:24;;;;;;;9.88;5.78;;;;;;;;;;2098098;28;20691;-63
2021/08/08 05:47:24;;;;;;;8.23;6.28;;;;;;;;;;2089885;28;20170;-60
2021/08/08 05:48:25;;;;;;;8.45;6.10;;;;;;;;;;2098674;28;20201;-60
2021/08/08 05:49:25;;;;;;;10.07;6.43;;;;;;;;;;2097233;28;20163;-62
2021/08/08 05:50:25;;;;;;;8.73;6.32;;;;;;;;;;2098719;28;20568;-56
2021/08/08 05:51:27;;;;;;;8.48;6.07;;;;;;;;;;2096139;28;20175;-62
2021/08/08 05:52:28;;;;;;;6.65;5.63;;;;;;;;;;2089413;28;20541;-63
2021/08/08 05:53:28;;;;;;;10.13;6.03;;;;;;;;;;2090309;28;20222;-60
2021/08/08 05:54:28;;;;;;;11.25;6.25;;;;;;;;;;2099233;28;20175;-62
2021/08/08 05:55:29;;;;;;;10.65;5.60;;;;;;;;;;2107616;28;20169;-60
2021/08/08 05:56:29;;;;;;;11.13;5.80;;;;;;;;;;2101536;28;20225;-60
2021/08/08 05:57:29;;;;;;;9.60;5.72;;;;;;;;;;2102540;28;20240;-58
2021/08/08 05:58:29;;;;;;;7.68;5.57;;;;;;;;;;2101179;28;20175;-61
2021/08/08 05:59:30;;;;;;;8.98;5.63;;;;;;;;;;2096664;28;20167;-62
2021/08/08 06:00:30;;;;;;;9.95;5.28;;;;;;;;;;2090716;28;20190;-62
2021/08/08 06:01:34;;;;;;;9.25;5.47;;;;;;;;;;2089456;28;20174;-61
2021/08/08 06:02:34;;;;;;;16.80;6.05;;;;;;;;;;2098186;28;20175;-59
2021/08/08 06:03:35;;;;;;;11.18;5.40;;;;;;;;;;2105630;28;20197;-62
2021/08/08 06:04:35;;;;;;;6.68;5.70;;;;;;;;;;2105803;28;20252;-59
2021/08/08 06:05:36;;;;;;;6.80;5.32;;;;;;;;;;2096315;28;20186;-58
2021/08/08 06:06:36;;;;;;;8.40;5.28;;;;;;;;;;2096527;28;20752;-58